Time;durP1;ratioP1;P1;durP2;ratioP2;P2;SDS_P1;SDS_P2;PMS_P1;PMS_P2;Temp;Humidity;BMP_temperature;BMP_pressure;BME280_temperature;BME280_humidity;BME280_pressure;Samples;Min_cycle;Max_cycle;Signal;HPM_P1;HPM_P2
2022/08/12 00:44:48;;;;;;;5.67;5.17;;;23.60;43.00;;;;;;5073663;28;20547;-68
2022/08/12 00:47:16;;;;;;;5.50;5.10;;;23.40;42.80;;;;;;5074005;28;20472;-68
2022/08/12 00:49:45;;;;;;;5.30;4.90;;;23.40;42.70;;;;;;5073842;28;21030;-68
2022/08/12 00:52:13;;;;;;;6.03;5.43;;;23.40;42.60;;;;;;5074274;28;20551;-68
2022/08/12 00:54:43;;;;;;;5.93;5.23;;;23.40;42.70;;;;;;5073824;28;20449;-68
2022/08/12 00:57:12;;;;;;;5.30;4.90;;;23.40;43.10;;;;;;5074267;28;20437;-68
2022/08/12 00:59:44;;;;;;;6.10;5.13;;;23.30;43.10;;;;;;5074295;28;20451;-68
2022/08/12 01:02:15;;;;;;;5.97;5.47;;;23.30;43.20;;;;;;5074663;28;20469;-68
2022/08/12 01:13:02;;;;;;;5.40;5.00;;;23.20;43.90;;;;;;5074155;28;20432;-68
2022/08/12 01:15:30;;;;;;;8.90;5.77;;;23.10;43.80;;;;;;5074603;28;20455;-69
2022/08/12 01:17:57;;;;;;;5.50;5.00;;;23.10;43.80;;;;;;5074359;28;20481;-69
2022/08/12 01:20:39;;;;;;;5.50;5.10;;;23.20;44.00;;;;;;5074585;28;20475;-69
2022/08/12 01:23:31;;;;;;;5.07;4.67;;;23.20;44.00;;;;;;5075007;28;20441;-69
2022/08/12 01:26:02;;;;;;;7.40;5.57;;;23.10;44.00;;;;;;5074702;28;20440;-69
2022/08/12 01:28:31;;;;;;;7.63;5.90;;;23.10;44.10;;;;;;5074307;28;20845;-68
2022/08/12 01:31:01;;;;;;;6.33;5.53;;;23.10;44.40;;;;;;5074460;28;20473;-68
2022/08/12 01:33:32;;;;;;;10.07;6.50;;;23.00;44.60;;;;;;5074644;28;20810;-68
2022/08/12 01:36:02;;;;;;;6.03;5.43;;;22.90;44.70;;;;;;5075302;28;20441;-69
2022/08/12 01:38:33;;;;;;;7.13;5.80;;;22.80;44.90;;;;;;5075149;28;20520;-69
2022/08/12 01:41:03;;;;;;;5.83;5.43;;;22.70;45.10;;;;;;5075428;28;20461;-69
2022/08/12 01:43:31;;;;;;;6.40;5.80;;;22.60;45.10;;;;;;5075090;28;20452;-68
2022/08/12 01:46:06;;;;;;;6.40;5.80;;;22.60;45.20;;;;;;5074712;28;20968;-69
2022/08/12 01:48:45;;;;;;;6.73;6.20;;;22.50;45.20;;;;;;5075228;28;20437;-67
2022/08/12 01:51:27;;;;;;;6.53;5.93;;;22.50;45.50;;;;;;5075531;28;20833;-69
2022/08/12 01:54:03;;;;;;;6.90;6.20;;;22.50;45.50;;;;;;5075771;28;20445;-69
2022/08/12 01:56:42;;;;;;;6.40;5.80;;;22.40;45.50;;;;;;5078860;28;20464;-69
2022/08/12 02:02:01;;;;;;;5.57;5.07;;;22.40;45.60;;;;;;5078609;28;20448;-69
2022/08/12 02:13:43;;;;;;;8.53;5.40;;;22.30;45.80;;;;;;5082025;28;20401;-68
2022/08/12 02:16:21;;;;;;;6.23;5.63;;;22.30;46.00;;;;;;5080583;28;20429;-68
2022/08/12 02:18:57;;;;;;;6.67;6.03;;;22.20;46.20;;;;;;5081938;28;20432;-69
2022/08/12 02:21:37;;;;;;;6.23;5.63;;;22.20;46.40;;;;;;5082875;28;20476;-69
2022/08/12 02:24:06;;;;;;;6.97;6.47;;;22.10;46.30;;;;;;5096600;28;20487;-69
2022/08/12 02:26:36;;;;;;;6.50;6.00;;;22.10;46.30;;;;;;5096145;28;20451;-69
2022/08/12 02:29:04;;;;;;;6.57;6.10;;;22.00;46.20;;;;;;5096221;28;20428;-69
2022/08/12 02:31:31;;;;;;;6.53;5.93;;;22.00;46.40;;;;;;5095504;28;20465;-68
2022/08/12 02:33:58;;;;;;;6.90;6.40;;;21.90;46.60;;;;;;5096985;28;20424;-69
2022/08/12 02:36:26;;;;;;;6.70;6.10;;;21.80;46.60;;;;;;5094534;28;20456;-69
2022/08/12 02:38:55;;;;;;;6.60;5.87;;;21.80;46.60;;;;;;5095654;28;20464;-69
2022/08/12 02:41:26;;;;;;;5.70;5.30;;;21.80;46.60;;;;;;5096773;28;20452;-69
2022/08/12 02:43:58;;;;;;;6.23;5.77;;;21.80;46.60;;;;;;5092402;28;20475;-69
2022/08/12 02:46:31;;;;;;;7.20;6.50;;;21.80;46.70;;;;;;5087452;28;20440;-69
2022/08/12 02:49:01;;;;;;;7.30;5.87;;;21.80;46.80;;;;;;5082234;28;20441;-66
2022/08/12 02:51:31;;;;;;;7.20;6.60;;;21.80;46.90;;;;;;5086869;28;20472;-67
2022/08/12 02:54:02;;;;;;;6.90;6.40;;;21.80;47.00;;;;;;5086132;28;20444;-68
2022/08/12 02:56:29;;;;;;;6.63;6.13;;;21.80;47.00;;;;;;5086745;28;20439;-67
2022/08/12 02:58:57;;;;;;;7.43;6.00;;;21.90;47.10;;;;;;5086730;28;20908;-67
2022/08/12 03:01:32;;;;;;;5.80;5.40;;;21.80;47.20;;;;;;5086142;28;20980;-68
2022/08/12 03:04:01;;;;;;;8.03;6.90;;;21.80;47.30;;;;;;5086023;28;20496;-68
2022/08/12 03:06:37;;;;;;;6.60;6.00;;;21.80;47.60;;;;;;5085166;28;20445;-67
2022/08/12 03:09:06;;;;;;;8.50;6.30;;;21.70;47.70;;;;;;5084821;28;20436;-67
2022/08/12 03:11:39;;;;;;;7.23;6.40;;;21.70;47.80;;;;;;5083214;28;20464;-67
2022/08/12 03:14:12;;;;;;;5.80;5.40;;;21.60;47.70;;;;;;5083077;28;20429;-67
2022/08/12 03:16:41;;;;;;;5.97;5.50;;;21.60;47.80;;;;;;5082730;28;20426;-67
2022/08/12 03:19:08;;;;;;;8.30;6.70;;;21.50;47.90;;;;;;5080767;28;20445;-67
2022/08/12 03:21:36;;;;;;;8.10;6.20;;;21.50;48.00;;;;;;5080437;28;20476;-66
2022/08/12 03:24:08;;;;;;;8.30;6.13;;;21.40;48.20;;;;;;5083714;28;20461;-67
2022/08/12 03:26:35;;;;;;;6.80;6.20;;;21.40;48.30;;;;;;5084553;28;20793;-67
2022/08/12 03:29:05;;;;;;;5.80;5.40;;;21.40;48.40;;;;;;5085152;28;20440;-67
2022/08/12 03:31:33;;;;;;;6.30;5.73;;;21.40;48.60;;;;;;5085127;28;20508;-67
2022/08/12 03:34:03;;;;;;;6.50;6.10;;;21.30;48.50;;;;;;5084849;28;20457;-67
2022/08/12 03:36:32;;;;;;;6.53;5.97;;;21.20;48.40;;;;;;5085113;28;20483;-67
2022/08/12 03:41:49;;;;;;;6.70;6.00;;;21.20;48.50;;;;;;5084469;28;20471;-66
2022/08/12 04:01:00;;;;;;;6.43;5.83;;;20.80;49.60;;;;;;5085324;28;20448;-66
2022/08/12 04:06:13;;;;;;;6.80;6.17;;;20.60;50.10;;;;;;5084293;28;20460;-66
2022/08/12 04:08:41;;;;;;;9.87;7.00;;;20.60;50.20;;;;;;5085279;28;20449;-67
2022/08/12 04:13:52;;;;;;;5.27;4.87;;;20.50;50.50;;;;;;5085115;28;20408;-68
2022/08/12 04:16:19;;;;;;;6.40;5.80;;;20.50;50.30;;;;;;5083571;28;20441;-68
2022/08/12 04:18:47;;;;;;;6.50;5.90;;;20.80;49.50;;;;;;5082978;28;20453;-68
2022/08/12 04:21:16;;;;;;;6.40;5.80;;;21.30;48.40;;;;;;5084143;28;20469;-67
2022/08/12 04:23:43;;;;;;;5.67;5.27;;;21.70;47.30;;;;;;5083927;28;20453;-68
2022/08/12 04:26:13;;;;;;;5.40;4.90;;;22.10;46.30;;;;;;5082774;28;20506;-68
2022/08/12 04:28:39;;;;;;;5.93;5.43;;;22.40;45.40;;;;;;5084247;28;20453;-68
2022/08/12 04:31:06;;;;;;;8.30;5.10;;;22.70;44.70;;;;;;5083394;28;20464;-68
2022/08/12 04:33:34;;;;;;;6.20;5.60;;;23.00;44.20;;;;;;5085696;28;21041;-68
2022/08/12 04:36:01;;;;;;;5.27;4.87;;;23.20;43.70;;;;;;5083794;28;20504;-68
2022/08/12 04:38:30;;;;;;;5.27;4.87;;;23.40;43.10;;;;;;5085680;28;20441;-67
2022/08/12 04:40:57;;;;;;;5.57;5.10;;;23.50;42.80;;;;;;5085255;28;20457;-67
2022/08/12 04:43:24;;;;;;;4.80;4.50;;;23.70;42.50;;;;;;5085480;28;20445;-68
2022/08/12 04:45:51;;;;;;;5.67;5.10;;;23.80;42.30;;;;;;5084751;28;20858;-68
2022/08/12 04:48:18;;;;;;;5.30;4.77;;;23.80;42.00;;;;;;5085501;28;20451;-67
2022/08/12 04:50:45;;;;;;;6.67;5.07;;;23.90;41.90;;;;;;5085402;28;20544;-68
2022/08/12 04:53:13;;;;;;;6.93;5.30;;;24.00;41.70;;;;;;5085811;28;20451;-68
2022/08/12 04:55:44;;;;;;;9.20;5.27;;;24.00;41.60;;;;;;5085196;28;20467;-69
2022/08/12 04:58:11;;;;;;;5.03;4.63;;;24.00;41.50;;;;;;5085691;28;20443;-67
2022/08/12 05:00:38;;;;;;;5.77;5.37;;;24.00;41.40;;;;;;5085530;28;20501;-67
2022/08/12 05:03:07;;;;;;;9.53;5.57;;;24.10;41.40;;;;;;5085934;28;20507;-67
2022/08/12 05:05:35;;;;;;;7.17;5.37;;;24.10;41.30;;;;;;5085776;28;20484;-67
2022/08/12 05:08:01;;;;;;;5.03;4.63;;;24.10;41.30;;;;;;5085187;28;20516;-67
2022/08/12 05:10:28;;;;;;;5.83;5.33;;;24.10;41.30;;;;;;5085318;28;20484;-67
2022/08/12 05:12:59;;;;;;;5.47;5.00;;;24.10;41.30;;;;;;5084996;28;20448;-67
2022/08/12 05:15:26;;;;;;;7.63;5.23;;;24.10;41.20;;;;;;5085924;28;20430;-68
2022/08/12 05:17:54;;;;;;;5.70;5.30;;;24.10;41.20;;;;;;5086421;28;20449;-68
2022/08/12 05:20:21;;;;;;;6.10;5.60;;;24.10;41.40;;;;;;5085369;28;20475;-67
2022/08/12 05:22:49;;;;;;;5.43;5.03;;;24.10;41.30;;;;;;5084791;28;20948;-67
2022/08/12 05:25:16;;;;;;;7.50;5.93;;;24.10;41.40;;;;;;5084103;28;20893;-66
2022/08/12 05:27:44;;;;;;;5.83;5.33;;;24.00;41.50;;;;;;5085511;28;20438;-68
2022/08/12 05:30:13;;;;;;;7.80;4.80;;;24.00;41.60;;;;;;5085956;28;20455;-67
2022/08/12 05:32:40;;;;;;;5.37;4.90;;;24.00;41.80;;;;;;5087567;28;20462;-68
2022/08/12 05:35:09;;;;;;;6.07;5.47;;;24.00;41.90;;;;;;5088697;28;20437;-68
2022/08/12 05:37:36;;;;;;;6.40;5.90;;;24.00;42.00;;;;;;5089096;28;20436;-69
2022/08/12 05:40:05;;;;;;;6.20;5.60;;;24.00;42.00;;;;;;5088889;28;20445;-68
2022/08/12 05:42:32;;;;;;;6.63;6.00;;;24.00;42.10;;;;;;5088518;28;20453;-67
2022/08/12 05:45:00;;;;;;;7.23;6.50;;;24.00;42.10;;;;;;5088413;28;20540;-68
2022/08/12 05:47:28;;;;;;;10.00;5.80;;;24.10;42.30;;;;;;5088034;28;20448;-68
2022/08/12 05:49:55;;;;;;;6.93;6.33;;;24.10;42.50;;;;;;5088115;28;20871;-69
2022/08/12 05:52:22;;;;;;;6.07;5.57;;;24.10;42.50;;;;;;5087373;28;20433;-68
2022/08/12 05:54:49;;;;;;;6.47;5.43;;;24.20;42.60;;;;;;5087751;28;20449;-69
2022/08/12 05:57:15;;;;;;;7.77;5.80;;;24.30;42.80;;;;;;5087852;28;20505;-69
2022/08/12 05:59:42;;;;;;;6.63;6.00;;;24.30;43.40;;;;;;5088217;28;20452;-67
2022/08/12 06:02:10;;;;;;;6.00;5.30;;;24.30;42.90;;;;;;5088159;28;20464;-68
2022/08/12 06:04:39;;;;;;;6.30;5.80;;;24.30;43.00;;;;;;5088485;28;20464;-67
2022/08/12 06:07:07;;;;;;;7.70;5.90;;;24.40;43.20;;;;;;5088277;28;20433;-67
2022/08/12 06:09:34;;;;;;;6.40;5.90;;;24.40;43.30;;;;;;5088230;28;20974;-67
2022/08/12 06:12:01;;;;;;;7.90;6.00;;;24.50;43.50;;;;;;5088096;28;20469;-66
2022/08/12 06:14:28;;;;;;;6.10;5.50;;;24.50;43.60;;;;;;5087090;28;20467;-66
2022/08/12 06:16:55;;;;;;;6.83;6.00;;;24.50;43.70;;;;;;5087300;28;20441;-67
2022/08/12 06:19:24;;;;;;;6.60;6.00;;;24.50;43.90;;;;;;5087116;28;20951;-66
2022/08/12 06:21:53;;;;;;;6.07;5.60;;;24.60;44.30;;;;;;5087386;28;20465;-67
2022/08/12 06:24:23;;;;;;;6.60;5.63;;;24.60;44.40;;;;;;5087800;28;20453;-67
2022/08/12 06:26:50;;;;;;;5.93;5.43;;;24.70;44.60;;;;;;5087042;28;21013;-67
2022/08/12 06:29:18;;;;;;;8.47;6.17;;;24.70;44.50;;;;;;5087485;28;20429;-66
2022/08/12 06:31:49;;;;;;;8.70;5.40;;;24.80;44.70;;;;;;5087263;28;20542;-66
2022/08/12 06:34:16;;;;;;;6.73;5.87;;;24.80;44.70;;;;;;5087249;28;20472;-66
2022/08/12 06:36:43;;;;;;;5.97;5.30;;;24.90;44.90;;;;;;5088146;28;20445;-66
2022/08/12 06:39:12;;;;;;;6.63;5.20;;;24.90;44.90;;;;;;5087569;28;20433;-66
2022/08/12 06:44:24;;;;;;;9.33;6.10;;;25.10;44.90;;;;;;5086805;28;20941;-66
2022/08/12 06:46:52;;;;;;;7.93;5.13;;;25.20;45.00;;;;;;5087102;28;20485;-66
2022/08/12 06:49:19;;;;;;;5.47;4.40;;;25.30;45.00;;;;;;5087931;28;20459;-66
2022/08/12 06:51:46;;;;;;;8.97;4.90;;;25.40;44.90;;;;;;5086005;28;20473;-66
2022/08/12 06:54:14;;;;;;;9.63;5.40;;;25.40;45.30;;;;;;5085636;28;20441;-67
2022/08/12 06:56:41;;;;;;;6.70;5.10;;;25.50;44.70;;;;;;5085622;28;20447;-66
2022/08/12 06:59:10;;;;;;;5.43;4.70;;;25.60;44.50;;;;;;5087404;28;20425;-66
2022/08/12 07:01:37;;;;;;;5.07;4.67;;;25.70;44.20;;;;;;5085261;28;20477;-67
2022/08/12 07:04:04;;;;;;;6.53;4.77;;;25.80;43.60;;;;;;5086249;28;20461;-67
2022/08/12 07:06:31;;;;;;;5.00;4.57;;;25.90;42.50;;;;;;5086044;28;20480;-67
2022/08/12 07:08:58;;;;;;;5.20;4.00;;;26.00;42.10;;;;;;5086328;28;20538;-67
2022/08/12 07:11:27;;;;;;;4.00;3.60;;;26.10;41.70;;;;;;5086047;28;20479;-67
2022/08/12 07:13:57;;;;;;;6.23;3.83;;;26.20;40.70;;;;;;5085619;28;20476;-67
2022/08/12 07:16:25;;;;;;;4.90;4.17;;;26.30;40.40;;;;;;5086518;28;20437;-68
2022/08/12 07:18:52;;;;;;;6.63;4.00;;;26.40;40.00;;;;;;5086654;28;20547;-67
2022/08/12 07:21:19;;;;;;;4.50;3.33;;;26.50;40.20;;;;;;5087202;28;20476;-67
2022/08/12 07:23:46;;;;;;;7.73;3.70;;;26.60;39.20;;;;;;5087307;28;20445;-67
2022/08/12 07:26:15;;;;;;;4.23;3.57;;;26.70;38.40;;;;;;5086271;28;20477;-67
2022/08/12 07:28:44;;;;;;;4.00;3.70;;;26.80;38.50;;;;;;5086545;28;20512;-68
2022/08/12 07:31:11;;;;;;;6.40;5.90;;;26.90;38.10;;;;;;5084346;28;20495;-68
2022/08/12 07:33:40;;;;;;;7.13;6.43;;;27.00;38.10;;;;;;5084565;28;20445;-68
2022/08/12 07:36:09;;;;;;;6.23;5.40;;;27.20;37.90;;;;;;5084823;28;20439;-67
2022/08/12 07:38:38;;;;;;;5.43;4.93;;;27.30;37.50;;;;;;5085591;28;20449;-68
2022/08/12 07:41:09;;;;;;;6.37;4.60;;;27.40;37.20;;;;;;5085113;28;20491;-67
2022/08/12 07:43:39;;;;;;;6.23;5.60;;;27.60;37.00;;;;;;5086634;28;20479;-67
2022/08/12 07:46:13;;;;;;;5.90;5.30;;;27.80;36.90;;;;;;5088155;28;20487;-67
2022/08/12 07:48:43;;;;;;;5.30;4.80;;;27.90;36.50;;;;;;5086760;28;20983;-67
2022/08/12 07:51:11;;;;;;;7.77;5.87;;;28.10;36.20;;;;;;5085730;28;20457;-67
2022/08/12 07:53:39;;;;;;;7.80;6.17;;;28.20;36.00;;;;;;5085047;28;20505;-68
2022/08/12 07:56:08;;;;;;;6.67;5.93;;;28.40;35.00;;;;;;5085639;28;20440;-67
2022/08/12 07:58:38;;;;;;;8.37;6.10;;;28.50;34.90;;;;;;5085634;28;20939;-67
2022/08/12 08:01:09;;;;;;;10.50;6.17;;;28.60;34.90;;;;;;5084184;28;20984;-68
2022/08/12 08:03:36;;;;;;;9.17;6.50;;;28.80;34.40;;;;;;5084865;28;20468;-68
2022/08/12 08:06:03;;;;;;;15.50;7.90;;;28.90;34.10;;;;;;5084969;28;20552;-68
2022/08/12 08:08:30;;;;;;;7.83;6.63;;;29.10;33.00;;;;;;5086208;28;20445;-68
2022/08/12 08:13:39;;;;;;;17.53;5.87;;;29.00;32.80;;;;;;5085101;28;20433;-67
2022/08/12 08:16:08;;;;;;;8.03;5.47;;;28.90;32.60;;;;;;5085485;28;20445;-68
2022/08/12 08:18:35;;;;;;;7.83;4.70;;;28.90;32.30;;;;;;5085706;28;20437;-68
2022/08/12 08:21:04;;;;;;;5.10;4.60;;;28.90;31.70;;;;;;5086635;28;20457;-68
2022/08/12 08:26:13;;;;;;;6.87;5.30;;;29.00;32.30;;;;;;5084931;28;20466;-68
2022/08/12 08:28:41;;;;;;;6.20;4.70;;;29.10;32.60;;;;;;5085138;28;20455;-67
2022/08/12 08:31:09;;;;;;;12.03;5.63;;;29.20;31.40;;;;;;5084132;28;20460;-68
2022/08/12 08:33:35;;;;;;;9.63;5.37;;;29.30;31.90;;;;;;5085153;28;20451;-68
2022/08/12 08:36:05;;;;;;;6.70;5.10;;;29.40;31.20;;;;;;5085385;28;20441;-66
2022/08/12 08:38:32;;;;;;;8.40;5.10;;;29.60;30.40;;;;;;5085371;28;20476;-67
2022/08/12 08:43:45;;;;;;;7.40;5.00;;;29.90;30.00;;;;;;5084920;28;20421;-66
2022/08/12 08:46:13;;;;;;;5.10;4.40;;;30.10;30.70;;;;;;5085102;28;20460;-67
2022/08/12 08:48:40;;;;;;;4.97;4.57;;;30.40;30.40;;;;;;5083835;28;20451;-66
2022/08/12 08:51:07;;;;;;;5.43;4.60;;;30.70;29.30;;;;;;5083703;28;20500;-65
2022/08/12 08:53:34;;;;;;;6.60;4.53;;;30.90;28.60;;;;;;5083042;28;20832;-67
2022/08/12 08:56:00;;;;;;;9.83;4.70;;;31.00;28.40;;;;;;5084175;28;20487;-67
2022/08/12 08:58:27;;;;;;;6.73;5.10;;;31.10;28.10;;;;;;5084504;28;20445;-66
2022/08/12 09:00:55;;;;;;;7.50;5.37;;;31.30;27.40;;;;;;5086280;28;20487;-66
2022/08/12 09:03:23;;;;;;;5.67;5.13;;;31.40;27.00;;;;;;5083240;28;20813;-66
2022/08/12 09:05:52;;;;;;;5.50;3.97;;;31.40;26.90;;;;;;5083386;28;20487;-66
2022/08/12 09:08:18;;;;;;;7.27;4.20;;;31.50;27.00;;;;;;5083879;28;20501;-66
2022/08/12 09:10:45;;;;;;;5.17;4.03;;;31.50;26.20;;;;;;5083512;28;20465;-66
2022/08/12 09:13:33;;;;;;;4.27;3.97;;;31.50;27.60;;;;;;5083575;28;20948;-66
2022/08/12 09:16:00;;;;;;;4.60;4.17;;;31.80;27.30;;;;;;5083333;28;20428;-67
2022/08/12 09:18:30;;;;;;;7.00;4.60;;;32.00;26.90;;;;;;5083317;28;20453;-67
2022/08/12 09:20:57;;;;;;;6.30;4.17;;;32.10;26.40;;;;;;5083133;28;20473;-66
2022/08/12 09:23:26;;;;;;;8.20;5.00;;;32.20;26.00;;;;;;5082902;28;20479;-67
2022/08/12 09:25:53;;;;;;;9.63;4.97;;;32.40;25.90;;;;;;5082561;28;20483;-67
2022/08/12 09:35:06;;;;;;;6.10;4.60;;;33.20;25.10;;;;;;5083402;28;20376;-66
2022/08/12 09:37:33;;;;;;;5.60;4.40;;;33.60;24.60;;;;;;5083635;28;20421;-67
2022/08/12 09:40:00;;;;;;;5.03;4.00;;;33.90;24.40;;;;;;5083183;28;20439;-66
2022/08/12 09:45:23;;;;;;;4.57;3.60;;;34.60;24.80;;;;;;5083123;28;20446;-66
2022/08/12 09:47:50;;;;;;;3.13;2.93;;;35.00;24.00;;;;;;5083797;28;20469;-66
2022/08/12 09:50:20;;;;;;;4.03;3.07;;;35.40;24.00;;;;;;5083574;28;20471;-67
2022/08/12 09:52:51;;;;;;;5.30;2.77;;;35.80;24.00;;;;;;5083885;28;20927;-66
2022/08/12 09:55:19;;;;;;;3.40;2.90;;;36.10;23.70;;;;;;5084609;28;20436;-66
2022/08/12 09:57:46;;;;;;;5.27;3.50;;;36.50;23.00;;;;;;5083357;28;20879;-66
2022/08/12 10:00:14;;;;;;;5.17;3.13;;;36.80;22.00;;;;;;5084501;28;20451;-66
2022/08/12 10:02:59;;;;;;;3.80;3.10;;;37.20;22.50;;;;;;5084758;28;20436;-66
2022/08/12 10:05:32;;;;;;;3.33;3.00;;;37.60;21.70;;;;;;5084961;28;20188;-66
2022/08/12 10:07:59;;;;;;;4.00;2.93;;;37.90;21.70;;;;;;5085571;28;20650;-67
2022/08/12 10:10:26;;;;;;;4.57;2.90;;;38.20;21.90;;;;;;5084969;28;20322;-67
2022/08/12 10:16:17;;;;;;;4.47;2.90;;;38.70;19.60;;;;;;5081073;28;20640;-67
2022/08/12 10:18:47;;;;;;;3.28;2.67;;;39.10;20.50;;;;;;5085352;28;20190;-66
2022/08/12 10:21:16;;;;;;;3.08;2.70;;;39.50;20.00;;;;;;5086293;28;20747;-66
2022/08/12 10:23:45;;;;;;;3.08;2.78;;;39.70;18.70;;;;;;5087529;28;20216;-67
2022/08/12 10:31:44;;;;;;;6.78;2.65;;;40.60;18.40;;;;;;5088976;28;20220;-68
2022/08/12 10:34:12;;;;;;;2.53;2.33;;;41.10;18.20;;;;;;5087202;28;20578;-67
2022/08/12 10:36:41;;;;;;;3.35;2.50;;;41.50;18.40;;;;;;5087261;28;20208;-68
2022/08/12 10:39:10;;;;;;;2.67;2.47;;;42.00;17.90;;;;;;5086752;28;20190;-69
2022/08/12 10:44:22;;;;;;;2.55;2.00;;;42.80;16.40;;;;;;5086553;28;20185;-68
2022/08/12 10:46:51;;;;;;;2.97;2.13;;;43.30;16.20;;;;;;5086856;28;20226;-68
2022/08/12 10:49:18;;;;;;;3.20;2.30;;;43.70;15.90;;;;;;5086484;28;20665;-68
2022/08/12 10:51:50;;;;;;;2.13;2.03;;;44.00;14.90;;;;;;5084045;28;20222;-68
2022/08/12 10:54:18;;;;;;;3.65;2.15;;;44.40;14.90;;;;;;5085628;28;20244;-67
2022/08/12 10:56:48;;;;;;;4.65;2.55;;;44.90;15.00;;;;;;5082759;28;20194;-68
2022/08/12 10:59:16;;;;;;;3.17;2.22;;;45.40;14.00;;;;;;5086627;28;20206;-68
2022/08/12 11:01:43;;;;;;;2.75;2.00;;;45.90;13.70;;;;;;5087552;28;20226;-68
2022/08/12 11:04:12;;;;;;;3.45;1.95;;;46.30;13.60;;;;;;5087083;28;20413;-68
2022/08/12 11:06:46;;;;;;;2.45;1.80;;;46.70;13.20;;;;;;5086932;28;20229;-68
2022/08/12 11:09:16;;;;;;;2.00;1.90;;;47.00;12.70;;;;;;5085381;28;20186;-68
2022/08/12 11:11:44;;;;;;;2.75;2.10;;;47.40;12.90;;;;;;5086334;28;20225;-68
2022/08/12 11:14:10;;;;;;;4.22;2.22;;;47.70;12.50;;;;;;5087411;28;20206;-68
2022/08/12 11:16:37;;;;;;;2.10;1.73;;;48.00;12.20;;;;;;5085305;28;20205;-68
2022/08/12 11:19:04;;;;;;;1.92;1.77;;;48.40;12.20;;;;;;5084300;28;20206;-69
2022/08/12 11:21:31;;;;;;;2.72;1.80;;;48.80;11.80;;;;;;5085677;28;20236;-68
2022/08/12 11:23:57;;;;;;;3.55;1.55;;;49.00;11.40;;;;;;5085102;28;20213;-68
2022/08/12 11:26:25;;;;;;;2.58;2.20;;;49.20;11.30;;;;;;5082766;28;20225;-68
2022/08/12 11:28:52;;;;;;;2.70;1.67;;;49.40;11.00;;;;;;5083871;28;20205;-68
2022/08/12 11:31:19;;;;;;;2.22;1.80;;;49.60;10.60;;;;;;5082441;28;20222;-69
2022/08/12 11:33:48;;;;;;;3.95;1.95;;;49.80;10.40;;;;;;5082751;28;20206;-69
2022/08/12 11:36:16;;;;;;;1.77;1.67;;;49.90;10.30;;;;;;5084153;28;20216;-69
2022/08/12 11:38:43;;;;;;;2.10;1.90;;;50.10;10.20;;;;;;5083153;28;20198;-68
2022/08/12 11:41:10;;;;;;;6.43;2.40;;;50.20;10.60;;;;;;5081802;28;20222;-68
2022/08/12 11:43:38;;;;;;;3.00;2.25;;;50.40;10.20;;;;;;5083674;28;20652;-68
2022/08/12 11:46:05;;;;;;;2.47;1.65;;;50.60;10.40;;;;;;5082991;28;20209;-68
2022/08/12 11:48:38;;;;;;;1.70;1.60;;;50.80;10.20;;;;;;5080997;28;20221;-69
2022/08/12 11:51:06;;;;;;;3.55;2.42;;;50.90;10.30;;;;;;5080591;28;20774;-68
2022/08/12 11:53:32;;;;;;;2.03;1.83;;;51.20;9.30;;;;;;5080648;28;20202;-69
2022/08/12 11:55:59;;;;;;;2.53;2.00;;;50.80;8.60;;;;;;5083684;28;20194;-68
2022/08/12 11:58:26;;;;;;;2.28;1.70;;;50.80;10.10;;;;;;5083547;28;20178;-68
2022/08/12 12:00:54;;;;;;;4.75;1.70;;;50.80;10.00;;;;;;5082804;28;20222;-67
2022/08/12 12:03:21;;;;;;;1.52;1.25;;;51.10;10.10;;;;;;5080768;28;20220;-69
2022/08/12 12:05:48;;;;;;;6.80;2.17;;;51.30;10.00;;;;;;5081859;28;20202;-68
2022/08/12 12:08:20;;;;;;;2.50;1.75;;;51.60;9.50;;;;;;5081710;28;20210;-68
2022/08/12 12:10:48;;;;;;;2.63;1.63;;;51.90;9.20;;;;;;5081498;28;20229;-68
2022/08/12 12:13:15;;;;;;;1.70;1.55;;;52.10;9.40;;;;;;5080896;28;20661;-68
2022/08/12 12:15:42;;;;;;;2.95;2.17;;;52.40;9.70;;;;;;5079792;28;20190;-68
2022/08/12 12:18:21;;;;;;;2.13;2.03;;;52.70;9.70;;;;;;5082087;28;20224;-68
2022/08/12 12:20:48;;;;;;;1.60;1.50;;;53.10;9.50;;;;;;5084646;28;20224;-68
2022/08/12 12:23:15;;;;;;;2.13;2.03;;;53.40;9.40;;;;;;5082667;28;20672;-68
2022/08/12 12:25:42;;;;;;;5.57;2.03;;;53.70;9.00;;;;;;5083095;28;20649;-68
2022/08/12 12:28:09;;;;;;;2.53;1.30;;;53.90;7.90;;;;;;5082358;28;20217;-69
2022/08/12 12:30:37;;;;;;;3.10;1.88;;;54.10;8.20;;;;;;5084932;28;20228;-68
2022/08/12 12:33:05;;;;;;;2.47;1.85;;;54.30;8.50;;;;;;5086311;28;20190;-68
2022/08/12 12:35:34;;;;;;;4.25;1.75;;;54.50;7.90;;;;;;5084953;28;20264;-68
2022/08/12 12:38:02;;;;;;;3.60;1.60;;;54.70;7.00;;;;;;5085221;28;20197;-69
2022/08/12 12:40:30;;;;;;;2.53;1.60;;;54.80;7.70;;;;;;5083286;28;20225;-69
2022/08/12 12:42:58;;;;;;;2.08;1.85;;;54.90;7.60;;;;;;5083531;28;20196;-68
2022/08/12 12:45:26;;;;;;;3.40;1.83;;;55.10;7.70;;;;;;5083523;28;20297;-69
2022/08/12 12:47:57;;;;;;;3.30;1.70;;;55.20;7.60;;;;;;5083731;28;20212;-69
2022/08/12 12:50:25;;;;;;;3.92;1.70;;;55.40;7.40;;;;;;5083176;28;20634;-69
2022/08/12 12:52:53;;;;;;;4.32;1.85;;;55.50;7.40;;;;;;5082728;28;20684;-69
2022/08/12 12:55:21;;;;;;;2.80;1.55;;;55.70;7.20;;;;;;5085464;28;20209;-70
2022/08/12 12:57:48;;;;;;;1.83;1.65;;;55.90;7.20;;;;;;5082816;28;20208;-69
2022/08/12 13:00:16;;;;;;;1.92;1.52;;;56.00;7.20;;;;;;5081720;28;20206;-69
2022/08/12 13:02:51;;;;;;;3.67;1.70;;;56.20;7.10;;;;;;5083833;28;20210;-69
2022/08/12 13:05:19;;;;;;;1.88;1.67;;;56.30;7.00;;;;;;5082710;28;20186;-69
2022/08/12 13:07:45;;;;;;;1.63;1.52;;;56.50;6.80;;;;;;5084429;28;20206;-69
2022/08/12 13:10:14;;;;;;;2.72;1.80;;;56.60;6.20;;;;;;5080947;28;20205;-69
2022/08/12 13:12:41;;;;;;;1.60;1.50;;;56.70;6.60;;;;;;5080212;28;20230;-69
2022/08/12 13:15:14;;;;;;;2.13;1.55;;;56.80;6.50;;;;;;5080305;28;20202;-69
2022/08/12 13:17:42;;;;;;;2.13;1.58;;;56.90;6.40;;;;;;5077944;28;20178;-70
2022/08/12 13:20:09;;;;;;;1.48;1.30;;;57.00;6.30;;;;;;5076332;28;20669;-70
2022/08/12 13:22:36;;;;;;;2.78;1.40;;;57.00;5.60;;;;;;5082130;28;20271;-69
2022/08/12 13:25:03;;;;;;;4.65;1.50;;;56.90;6.10;;;;;;5077412;28;20182;-75
2022/08/12 13:27:35;;;;;;;1.80;1.63;;;56.80;4.90;;;;;;5075861;28;20221;-73
2022/08/12 13:30:03;;;;;;;4.18;1.90;;;56.70;6.00;;;;;;5081142;28;20198;-71
2022/08/12 13:32:29;;;;;;;3.55;1.60;;;56.70;6.20;;;;;;5081472;28;20198;-70
2022/08/12 13:34:57;;;;;;;4.70;1.75;;;56.70;6.10;;;;;;5075719;28;20198;-70
2022/08/12 13:37:25;;;;;;;3.83;1.75;;;56.80;6.20;;;;;;5076236;28;20683;-70
2022/08/12 13:39:52;;;;;;;2.55;1.70;;;57.00;6.20;;;;;;5075980;28;20202;-70
2022/08/12 13:42:21;;;;;;;1.48;1.38;;;57.10;6.30;;;;;;5076157;28;20230;-72
2022/08/12 13:44:51;;;;;;;2.40;1.50;;;57.30;6.20;;;;;;5076574;28;20265;-70
2022/08/12 13:47:20;;;;;;;1.50;1.40;;;57.40;5.60;;;;;;5075981;28;20210;-70
2022/08/12 13:49:48;;;;;;;1.70;1.20;;;57.60;5.80;;;;;;5076661;28;20300;-70
2022/08/12 13:52:17;;;;;;;2.25;1.55;;;57.80;6.20;;;;;;5078922;28;20606;-70
2022/08/12 13:54:45;;;;;;;2.20;1.48;;;57.90;5.80;;;;;;5079617;28;20256;-70
2022/08/12 13:57:13;;;;;;;2.67;1.40;;;58.00;5.30;;;;;;5079036;28;20239;-70
2022/08/12 13:59:40;;;;;;;1.50;1.48;;;58.00;4.90;;;;;;5079086;28;20186;-70
2022/08/12 14:02:11;;;;;;;1.88;1.35;;;57.80;3.60;;;;;;5078790;28;20283;-70
2022/08/12 14:04:41;;;;;;;1.98;1.42;;;57.10;4.50;;;;;;5079256;28;20214;-70
2022/08/12 14:07:09;;;;;;;2.83;1.52;;;56.90;5.40;;;;;;5078790;28;20251;-70
2022/08/12 14:12:17;;;;;;;1.80;1.33;;;57.00;5.90;;;;;;5079492;28;20209;-70
2022/08/12 14:14:49;;;;;;;1.50;1.40;;;57.20;5.30;;;;;;5079078;28;20202;-69
2022/08/12 14:17:18;;;;;;;3.20;1.50;;;57.40;5.60;;;;;;5078212;28;20239;-69
2022/08/12 14:22:26;;;;;;;1.85;1.23;;;57.60;5.40;;;;;;5079040;28;20194;-70
2022/08/12 14:24:54;;;;;;;1.45;1.33;;;57.50;5.10;;;;;;5078760;28;20209;-70
2022/08/12 14:27:22;;;;;;;3.85;1.70;;;57.60;5.40;;;;;;5078612;28;20226;-70
2022/08/12 14:29:49;;;;;;;3.28;1.83;;;57.60;3.90;;;;;;5079862;28;20283;-69
2022/08/12 14:32:17;;;;;;;1.88;1.30;;;57.40;4.90;;;;;;5078991;28;20229;-71
2022/08/12 14:34:47;;;;;;;1.08;1.02;;;57.40;5.30;;;;;;5080029;28;20202;-70
2022/08/12 14:37:14;;;;;;;4.35;1.48;;;57.50;5.60;;;;;;5079220;28;20263;-70
2022/08/12 14:39:41;;;;;;;1.58;1.48;;;57.50;5.20;;;;;;5078593;28;20206;-70
2022/08/12 14:42:08;;;;;;;1.55;1.45;;;57.70;5.50;;;;;;5078818;28;20228;-70
2022/08/12 14:44:36;;;;;;;4.25;1.40;;;57.80;5.40;;;;;;5077505;28;20209;-70
2022/08/12 14:47:03;;;;;;;1.70;1.20;;;57.90;5.10;;;;;;5077460;28;20194;-70
2022/08/12 14:49:31;;;;;;;1.80;1.50;;;57.90;5.30;;;;;;5078095;28;20234;-70
2022/08/12 14:51:58;;;;;;;1.65;1.52;;;57.90;5.30;;;;;;5077307;28;20232;-69
2022/08/12 14:54:24;;;;;;;2.45;1.73;;;57.90;5.20;;;;;;5077712;28;20187;-70
2022/08/12 14:56:52;;;;;;;2.05;1.52;;;57.80;5.40;;;;;;5078257;28;20206;-70
2022/08/12 15:02:03;;;;;;;2.17;1.30;;;57.80;5.60;;;;;;5077408;28;20703;-69
2022/08/12 15:04:31;;;;;;;3.65;1.52;;;57.80;5.30;;;;;;5077414;28;20210;-70